Time;durP1;ratioP1;P1;durP2;ratioP2;P2;SDS_P1;SDS_P2;PMS_P1;PMS_P2;Temp;Humidity;BMP_temperature;BMP_pressure;BME280_temperature;BME280_humidity;BME280_pressure;Samples;Min_cycle;Max_cycle;Signal;HPM_P1;HPM_P2
2023/05/17 05:03:44;;;;;;;4.55;1.73;;;7.40;99.90;;;;;;4850903;29;20398;-68
2023/05/17 05:06:11;;;;;;;4.18;1.38;;;7.50;99.90;;;;;;4829940;29;20041;-68
2023/05/17 05:08:37;;;;;;;5.97;1.27;;;7.50;99.90;;;;;;4837350;29;20071;-68
2023/05/17 05:11:05;;;;;;;5.03;1.00;;;7.60;99.90;;;;;;4828356;29;20073;-68
2023/05/17 05:13:31;;;;;;;6.65;1.50;;;7.60;99.90;;;;;;4827160;29;20042;-69
2023/05/17 05:15:56;;;;;;;3.72;1.15;;;7.60;99.90;;;;;;4835942;29;20144;-68
2023/05/17 05:18:23;;;;;;;4.05;1.60;;;7.70;99.90;;;;;;4829564;29;20034;-71
2023/05/17 05:20:50;;;;;;;5.82;1.40;;;7.80;99.90;;;;;;4821165;29;20056;-69
2023/05/17 05:23:17;;;;;;;3.85;1.33;;;7.80;99.90;;;;;;4846219;29;20034;-68
2023/05/17 05:25:45;;;;;;;;;;;7.80;99.90;;;;;;4836282;29;20359;-67
2023/05/17 05:28:11;;;;;;;9.35;1.50;;;7.80;99.90;;;;;;4836214;29;19983;-67
2023/05/17 05:30:39;;;;;;;4.07;1.20;;;7.90;99.90;;;;;;4836286;29;20030;-67
2023/05/17 05:33:05;;;;;;;9.38;2.65;;;7.90;99.90;;;;;;4836296;29;20029;-66
2023/05/17 05:35:31;;;;;;;5.85;1.60;;;8.10;99.90;;;;;;4852794;29;20072;-67
2023/05/17 05:37:58;;;;;;;5.43;1.50;;;8.20;99.90;;;;;;4835638;29;20033;-68
2023/05/17 05:40:24;;;;;;;5.15;1.20;;;8.20;99.90;;;;;;4829499;29;20033;-68
2023/05/17 05:42:51;;;;;;;3.75;1.75;;;8.40;99.90;;;;;;4836241;29;20034;-67
2023/05/17 05:45:17;;;;;;;5.75;1.25;;;8.40;99.90;;;;;;4832679;29;20297;-67
2023/05/17 05:47:45;;;;;;;5.53;1.50;;;8.40;99.90;;;;;;4823710;29;20037;-67
2023/05/17 05:50:11;;;;;;;4.00;1.45;;;8.50;99.90;;;;;;4852105;29;20323;-67
2023/05/17 05:52:37;;;;;;;5.15;2.13;;;8.60;99.90;;;;;;4851332;29;20070;-68
2023/05/17 05:55:03;;;;;;;4.50;1.50;;;8.70;99.90;;;;;;4835596;29;20033;-67
2023/05/17 05:57:29;;;;;;;5.68;1.38;;;8.80;99.90;;;;;;4832190;29;20038;-68
2023/05/17 05:59:55;;;;;;;4.57;1.85;;;8.90;99.90;;;;;;4843872;29;20092;-67
2023/05/17 06:02:21;;;;;;;6.35;1.98;;;9.00;99.90;;;;;;4826408;29;20054;-67
2023/05/17 06:04:47;;;;;;;5.85;1.83;;;9.00;99.90;;;;;;4834277;29;20035;-70
2023/05/17 06:07:13;;;;;;;6.18;2.33;;;9.00;99.90;;;;;;4819985;29;20035;-67
2023/05/17 06:09:40;;;;;;;5.28;1.73;;;9.00;99.90;;;;;;4822077;29;20022;-67
2023/05/17 06:12:06;;;;;;;7.70;1.63;;;9.10;99.90;;;;;;4827384;29;20042;-68
2023/05/17 06:14:32;;;;;;;5.55;1.90;;;9.10;99.90;;;;;;4821427;29;20090;-70
2023/05/17 06:16:58;;;;;;;5.78;2.08;;;9.20;99.90;;;;;;4803944;29;20185;-69
2023/05/17 06:19:24;;;;;;;5.95;1.63;;;9.30;99.90;;;;;;4822174;29;20038;-67
2023/05/17 06:21:50;;;;;;;4.88;1.75;;;9.20;99.90;;;;;;4833484;29;20042;-68
2023/05/17 06:24:15;;;;;;;4.68;1.58;;;9.20;99.90;;;;;;4816886;29;20094;-69
2023/05/17 06:26:42;;;;;;;5.65;1.70;;;9.10;99.90;;;;;;4833807;29;20326;-69
2023/05/17 06:29:09;;;;;;;8.20;1.77;;;9.20;99.90;;;;;;4816645;29;20039;-69
2023/05/17 06:31:34;;;;;;;5.22;2.25;;;9.20;99.90;;;;;;4815281;29;20031;-69
2023/05/17 06:34:00;;;;;;;7.20;1.98;;;9.20;99.90;;;;;;4814772;29;20250;-69
2023/05/17 06:36:26;;;;;;;7.30;2.20;;;9.40;99.90;;;;;;4815321;29;20035;-69
2023/05/17 06:38:52;;;;;;;5.05;1.77;;;9.50;99.90;;;;;;4815247;29;20054;-68
2023/05/17 06:41:18;;;;;;;7.75;2.10;;;9.60;99.90;;;;;;4814531;29;20026;-68
2023/05/17 06:43:44;;;;;;;7.97;2.13;;;9.60;99.90;;;;;;4822378;29;20223;-69
2023/05/17 06:46:10;;;;;;;5.32;1.88;;;9.80;99.90;;;;;;4814537;29;20043;-68
2023/05/17 06:48:36;;;;;;;8.13;2.20;;;9.90;99.90;;;;;;4820121;29;20118;-69
2023/05/17 06:51:02;;;;;;;6.22;2.00;;;10.10;99.90;;;;;;4825166;29;20031;-69
2023/05/17 06:53:31;;;;;;;4.45;1.98;;;10.30;99.90;;;;;;4823620;29;20251;-70
2023/05/17 06:55:56;;;;;;;8.95;2.00;;;10.30;99.90;;;;;;4825455;29;20324;-69
2023/05/17 06:58:22;;;;;;;9.00;2.58;;;10.40;99.90;;;;;;4826934;29;20049;-69
2023/05/17 07:00:48;;;;;;;5.25;1.90;;;10.60;99.90;;;;;;4833493;29;20368;-69
2023/05/17 07:03:13;;;;;;;5.97;1.77;;;10.60;99.70;;;;;;4832670;29;20046;-69
2023/05/17 07:05:39;;;;;;;5.32;2.05;;;10.60;99.40;;;;;;4827570;29;20046;-70
2023/05/17 07:08:05;;;;;;;5.07;2.00;;;10.80;99.50;;;;;;4822002;29;20043;-69
2023/05/17 07:10:30;;;;;;;7.65;2.30;;;11.00;99.50;;;;;;4824859;29;20030;-69
2023/05/17 07:12:56;;;;;;;7.93;2.20;;;11.10;99.00;;;;;;4833903;29;20031;-69
2023/05/17 07:15:22;;;;;;;4.93;2.10;;;11.20;98.80;;;;;;4818257;29;20043;-68
2023/05/17 07:17:48;;;;;;;6.47;2.05;;;11.40;98.40;;;;;;4826479;29;20038;-69
2023/05/17 07:20:13;;;;;;;6.47;2.17;;;11.40;97.80;;;;;;4820110;29;20083;-69
2023/05/17 07:22:39;;;;;;;8.95;2.00;;;11.30;98.00;;;;;;4818492;29;20035;-68
2023/05/17 07:25:06;;;;;;;6.53;2.10;;;11.50;97.60;;;;;;4817936;29;20050;-69
2023/05/17 07:27:31;;;;;;;8.63;2.05;;;11.50;97.60;;;;;;4818110;29;20038;-70
2023/05/17 07:29:57;;;;;;;7.72;2.25;;;11.60;97.90;;;;;;4818085;29;20035;-69
2023/05/17 07:32:23;;;;;;;6.75;1.83;;;11.80;97.40;;;;;;4817573;29;20088;-68
2023/05/17 07:34:49;;;;;;;8.10;2.17;;;11.70;97.60;;;;;;4802132;29;20171;-69
2023/05/17 07:37:14;;;;;;;6.57;2.22;;;11.90;97.20;;;;;;4817950;29;20039;-69
2023/05/17 07:39:40;;;;;;;6.93;2.10;;;12.00;97.10;;;;;;4818028;29;20046;-69
2023/05/17 07:42:06;;;;;;;7.03;2.10;;;12.20;96.60;;;;;;4817569;29;20254;-70
2023/05/17 07:44:32;;;;;;;7.07;2.22;;;12.40;96.60;;;;;;4818147;29;20035;-69
2023/05/17 07:46:58;;;;;;;5.57;2.10;;;12.60;96.40;;;;;;4835619;29;20046;-69
2023/05/17 07:49:23;;;;;;;7.20;2.67;;;12.70;95.40;;;;;;4824694;29;20060;-71
2023/05/17 07:51:49;;;;;;;5.90;1.92;;;12.80;95.70;;;;;;4817653;29;20038;-71
2023/05/17 07:54:28;;;;;;;6.60;2.17;;;12.80;95.60;;;;;;4817219;29;20382;-69
2023/05/17 07:56:54;;;;;;;9.80;2.65;;;12.90;95.80;;;;;;4822621;29;20049;-70
2023/05/17 07:59:21;;;;;;;6.13;2.00;;;13.00;95.80;;;;;;4832953;29;20042;-70
2023/05/17 08:01:47;;;;;;;6.43;1.85;;;13.00;94.90;;;;;;4833192;29;20086;-69
2023/05/17 08:04:13;;;;;;;7.80;2.47;;;13.00;95.20;;;;;;4830191;29;20045;-69
2023/05/17 08:06:39;;;;;;;8.35;2.72;;;13.20;95.30;;;;;;4807238;29;20043;-69
2023/05/17 08:09:05;;;;;;;7.22;2.22;;;13.40;94.90;;;;;;4818200;29;20043;-70
2023/05/17 08:11:33;;;;;;;8.32;3.15;;;13.30;94.60;;;;;;4825232;29;20034;-70
2023/05/17 08:13:59;;;;;;;6.10;2.17;;;13.20;95.00;;;;;;4833823;29;20063;-69
2023/05/17 08:16:25;;;;;;;5.25;2.20;;;13.40;95.20;;;;;;4819475;29;20041;-70
2023/05/17 08:18:51;;;;;;;7.90;2.25;;;13.60;95.00;;;;;;4819952;29;20042;-70
2023/05/17 08:21:16;;;;;;;6.63;1.90;;;13.90;94.30;;;;;;4833818;29;20030;-69
2023/05/17 08:23:42;;;;;;;5.72;2.17;;;14.00;94.20;;;;;;4834466;29;20049;-69
2023/05/17 08:26:08;;;;;;;8.00;3.03;;;14.30;93.10;;;;;;4817848;29;20050;-69
2023/05/17 08:28:34;;;;;;;5.82;2.47;;;14.40;92.80;;;;;;4835222;29;20075;-69
2023/05/17 08:31:00;;;;;;;5.97;2.22;;;14.30;93.20;;;;;;4831940;29;20037;-70
2023/05/17 08:33:27;;;;;;;6.03;2.58;;;14.70;93.00;;;;;;4801021;29;20027;-69
2023/05/17 08:35:54;;;;;;;7.85;2.67;;;15.20;92.60;;;;;;4817277;29;20114;-70
2023/05/17 08:38:20;;;;;;;6.05;2.55;;;15.30;91.50;;;;;;4816497;29;20341;-69
2023/05/17 08:40:54;;;;;;;6.57;2.60;;;15.30;91.10;;;;;;4808920;29;20050;-69
2023/05/17 08:43:21;;;;;;;6.45;2.83;;;15.10;91.80;;;;;;4818410;29;20034;-68
2023/05/17 08:45:49;;;;;;;6.53;2.40;;;14.70;91.90;;;;;;4835413;29;20026;-68
2023/05/17 08:48:16;;;;;;;6.35;2.72;;;14.40;92.30;;;;;;4818581;29;20049;-67
2023/05/17 08:50:45;;;;;;;5.63;2.22;;;14.10;92.80;;;;;;4834775;29;20312;-68
2023/05/17 08:53:12;;;;;;;6.63;2.33;;;14.20;93.20;;;;;;4834138;29;20054;-68
2023/05/17 08:55:42;;;;;;;6.63;2.33;;;14.20;92.40;;;;;;4821927;29;20054;-68
2023/05/17 08:58:09;;;;;;;7.22;2.45;;;14.10;93.00;;;;;;4830734;29;20239;-68
2023/05/17 09:00:35;;;;;;;8.35;2.40;;;14.40;93.20;;;;;;4834800;29;20038;-69
2023/05/17 09:03:01;;;;;;;9.27;2.42;;;14.60;92.90;;;;;;4833853;29;20090;-70
2023/05/17 09:05:27;;;;;;;5.20;2.58;;;15.10;92.50;;;;;;4834692;29;20296;-70
2023/05/17 09:07:55;;;;;;;9.82;2.90;;;15.60;91.60;;;;;;4835038;29;20102;-68
2023/05/17 09:10:20;;;;;;;8.18;2.90;;;15.80;90.60;;;;;;4827443;29;20050;-69
2023/05/17 09:12:46;;;;;;;7.82;2.40;;;15.70;90.50;;;;;;4816768;29;20300;-68
2023/05/17 09:15:18;;;;;;;5.35;2.40;;;15.70;90.50;;;;;;4816337;29;20049;-69
2023/05/17 09:17:51;;;;;;;7.70;2.70;;;15.60;90.10;;;;;;4824572;29;20109;-69
2023/05/17 09:20:33;;;;;;;8.43;2.33;;;15.40;90.60;;;;;;4822408;29;20232;-69
2023/05/17 09:23:00;;;;;;;5.90;2.50;;;15.40;90.40;;;;;;4834738;29;20045;-69
2023/05/17 09:25:28;;;;;;;6.28;2.53;;;15.40;90.30;;;;;;4834375;29;20281;-70
2023/05/17 09:27:55;;;;;;;8.73;2.80;;;15.30;90.10;;;;;;4834667;29;20034;-69
2023/05/17 09:30:29;;;;;;;8.13;2.72;;;15.20;90.30;;;;;;4833755;29;20077;-69
2023/05/17 09:32:56;;;;;;;4.53;2.28;;;15.00;90.70;;;;;;4834109;29;20271;-69
2023/05/17 09:35:29;;;;;;;6.85;2.42;;;15.10;89.40;;;;;;4833727;29;20400;-70
2023/05/17 09:38:04;;;;;;;6.38;2.10;;;15.00;90.10;;;;;;4834107;29;20087;-68
2023/05/17 09:40:30;;;;;;;7.05;2.33;;;15.20;89.50;;;;;;4833904;29;20085;-68
2023/05/17 09:42:58;;;;;;;6.57;2.30;;;15.40;88.80;;;;;;4834204;29;20030;-68
2023/05/17 09:45:25;;;;;;;5.10;2.20;;;15.60;87.80;;;;;;4833734;29;20042;-68
2023/05/17 09:47:51;;;;;;;5.75;2.00;;;15.70;88.00;;;;;;4834053;29;20030;-68
2023/05/17 09:50:20;;;;;;;8.60;2.42;;;15.70;87.80;;;;;;4833851;29;20099;-68
2023/05/17 09:52:46;;;;;;;4.85;2.47;;;15.80;87.10;;;;;;4833939;29;20223;-69
2023/05/17 09:55:12;;;;;;;5.72;2.00;;;16.10;87.40;;;;;;4833767;29;20041;-69
2023/05/17 09:57:39;;;;;;;5.95;2.30;;;16.00;84.50;;;;;;4833937;29;20038;-69
2023/05/17 10:00:10;;;;;;;7.07;2.42;;;15.90;84.20;;;;;;4833457;29;20324;-68
2023/05/17 10:02:41;;;;;;;5.35;1.90;;;15.70;84.80;;;;;;4833658;29;20331;-70
2023/05/17 10:05:11;;;;;;;5.35;2.20;;;15.80;85.20;;;;;;4833193;29;20038;-70
2023/05/17 10:07:37;;;;;;;6.82;2.13;;;15.90;84.40;;;;;;4834116;29;20047;-68
2023/05/17 10:10:04;;;;;;;5.15;1.85;;;15.90;83.30;;;;;;4826370;29;20060;-69
2023/05/17 10:12:33;;;;;;;4.72;1.90;;;15.80;81.80;;;;;;4815585;29;20339;-69
2023/05/17 10:15:00;;;;;;;4.90;2.22;;;15.70;82.10;;;;;;4815707;29;20042;-69
2023/05/17 10:17:29;;;;;;;6.28;2.30;;;15.50;82.60;;;;;;4820347;29;20057;-69
2023/05/17 10:19:56;;;;;;;5.20;2.28;;;15.70;82.50;;;;;;4815521;29;20079;-69
2023/05/17 10:22:22;;;;;;;6.63;2.13;;;16.00;82.10;;;;;;4814847;29;20043;-69
2023/05/17 10:24:50;;;;;;;6.20;2.33;;;16.20;82.00;;;;;;4818867;29;20038;-69
2023/05/17 10:27:16;;;;;;;7.33;2.60;;;16.20;82.10;;;;;;4822743;29;20034;-69
2023/05/17 10:29:43;;;;;;;6.70;2.80;;;16.30;82.30;;;;;;4831661;29;20040;-69
2023/05/17 10:32:11;;;;;;;8.27;2.70;;;16.30;81.90;;;;;;4833110;29;20090;-68
2023/05/17 10:34:38;;;;;;;5.15;2.63;;;16.70;81.60;;;;;;4833592;29;20034;-68
2023/05/17 10:37:04;;;;;;;6.97;2.60;;;16.90;78.70;;;;;;4833409;29;20050;-68
2023/05/17 10:39:37;;;;;;;4.80;2.47;;;17.10;79.10;;;;;;4830706;29;20235;-69
2023/05/17 10:42:07;;;;;;;7.18;2.58;;;17.30;78.70;;;;;;4833316;29;20041;-69
2023/05/17 10:44:33;;;;;;;4.85;2.55;;;17.50;78.70;;;;;;4833236;29;20081;-69
2023/05/17 10:47:00;;;;;;;6.05;2.60;;;17.80;78.60;;;;;;4810163;29;20336;-70
2023/05/17 10:49:29;;;;;;;5.40;2.30;;;18.10;77.40;;;;;;4818780;29;20316;-69
2023/05/17 10:51:57;;;;;;;5.82;2.85;;;18.60;77.00;;;;;;4819098;29;20038;-70
2023/05/17 10:54:34;;;;;;;5.70;2.35;;;18.70;75.30;;;;;;4818522;29;20100;-69
2023/05/17 10:57:04;;;;;;;5.75;2.28;;;18.60;76.00;;;;;;4826853;29;20068;-70
2023/05/17 10:59:31;;;;;;;5.63;2.28;;;18.70;76.30;;;;;;4827958;29;20320;-69
2023/05/17 11:02:05;;;;;;;4.40;2.40;;;18.50;76.60;;;;;;4828738;29;20058;-69
2023/05/17 11:04:36;;;;;;;6.63;2.60;;;18.30;76.90;;;;;;4830760;29;20038;-68
2023/05/17 11:07:17;;;;;;;5.03;2.38;;;18.20;76.10;;;;;;4825711;29;20042;-70
2023/05/17 11:09:45;;;;;;;7.88;2.45;;;17.80;76.20;;;;;;4836509;29;20316;-70
2023/05/17 11:12:12;;;;;;;6.80;2.05;;;17.70;77.10;;;;;;4836231;29;20038;-69
2023/05/17 11:14:44;;;;;;;5.00;2.10;;;17.90;78.00;;;;;;4818880;29;20094;-70
2023/05/17 11:17:33;;;;;;;6.38;3.35;;;18.00;77.90;;;;;;4821255;29;20058;-70
2023/05/17 11:20:09;;;;;;;6.43;2.45;;;18.00;76.30;;;;;;4826455;29;20046;-69
2023/05/17 11:22:54;;;;;;;5.30;2.08;;;17.80;76.90;;;;;;4835204;29;20339;-69
2023/05/17 11:25:20;;;;;;;5.88;2.50;;;17.60;77.60;;;;;;4828474;29;20043;-69
2023/05/17 11:27:51;;;;;;;5.32;2.22;;;17.30;78.40;;;;;;4823920;29;20031;-70
2023/05/17 11:30:29;;;;;;;8.52;2.30;;;17.00;79.10;;;;;;4819506;29;20106;-69
2023/05/17 11:32:59;;;;;;;8.40;2.53;;;16.80;80.70;;;;;;4825227;29;20062;-68
2023/05/17 11:35:31;;;;;;;7.28;2.58;;;16.80;81.00;;;;;;4817403;29;20277;-68
2023/05/17 11:38:16;;;;;;;6.97;2.45;;;16.70;81.30;;;;;;4818186;29;20046;-69
2023/05/17 11:40:44;;;;;;;8.95;2.40;;;16.40;81.00;;;;;;4826438;29;20265;-69
2023/05/17 11:43:21;;;;;;;6.20;2.60;;;16.10;80.70;;;;;;4801332;29;20018;-69
2023/05/17 11:45:56;;;;;;;5.30;1.98;;;15.80;82.10;;;;;;4818017;29;20039;-68
2023/05/17 11:48:23;;;;;;;5.22;2.55;;;15.60;82.80;;;;;;4817152;29;20092;-67
2023/05/17 11:50:50;;;;;;;7.18;2.53;;;15.60;83.10;;;;;;4818060;29;20064;-68
2023/05/17 11:53:17;;;;;;;5.35;2.20;;;15.50;83.20;;;;;;4817444;29;20094;-68
2023/05/17 11:55:49;;;;;;;7.45;2.28;;;15.40;83.50;;;;;;4819444;29;20102;-68
2023/05/17 11:58:16;;;;;;;5.75;2.10;;;15.40;84.10;;;;;;4833087;29;20101;-68
2023/05/17 12:00:43;;;;;;;4.82;2.40;;;15.60;83.10;;;;;;4817507;29;20039;-69
2023/05/17 12:03:20;;;;;;;6.32;2.35;;;15.70;82.30;;;;;;4817164;29;20274;-69
2023/05/17 12:05:49;;;;;;;5.60;2.28;;;15.80;82.40;;;;;;4817814;29;20039;-69
2023/05/17 12:08:18;;;;;;;6.07;2.20;;;15.90;82.20;;;;;;4817314;29;20033;-68
2023/05/17 12:10:46;;;;;;;5.40;2.15;;;16.20;81.20;;;;;;4831013;29;20038;-68
2023/05/17 12:13:12;;;;;;;6.22;2.40;;;16.30;80.80;;;;;;4828269;29;20030;-68
2023/05/17 12:15:38;;;;;;;5.70;2.28;;;16.60;79.40;;;;;;4817287;29;20106;-68
2023/05/17 12:18:04;;;;;;;6.00;2.03;;;16.70;79.80;;;;;;4820817;29;20091;-69
2023/05/17 12:20:31;;;;;;;6.78;2.67;;;16.90;79.70;;;;;;4817519;29;20049;-69
2023/05/17 12:22:57;;;;;;;5.43;2.13;;;17.10;79.60;;;;;;4817205;29;20245;-69
2023/05/17 12:25:24;;;;;;;5.65;2.40;;;17.50;78.90;;;;;;4816491;29;20106;-70
2023/05/17 12:28:13;;;;;;;8.38;2.70;;;17.60;78.40;;;;;;4833685;29;20034;-70
2023/05/17 12:30:40;;;;;;;5.75;2.30;;;18.00;77.80;;;;;;4821447;29;20057;-69
2023/05/17 12:33:06;;;;;;;4.35;2.10;;;18.10;76.40;;;;;;4816882;29;20102;-69
2023/05/17 12:35:32;;;;;;;4.93;2.13;;;18.20;76.50;;;;;;4817369;29;20030;-69
2023/05/17 12:37:59;;;;;;;5.90;2.13;;;18.50;75.80;;;;;;4817167;29;20058;-69
2023/05/17 12:40:25;;;;;;;5.30;2.25;;;19.10;74.40;;;;;;4816665;29;20050;-70
2023/05/17 12:43:00;;;;;;;6.78;2.25;;;19.10;74.20;;;;;;4817142;29;20190;-70
2023/05/17 12:45:26;;;;;;;4.05;1.88;;;19.70;73.40;;;;;;4816381;29;20078;-70
2023/05/17 12:47:51;;;;;;;7.20;2.22;;;21.00;71.50;;;;;;4817039;29;20042;-69
2023/05/17 12:50:27;;;;;;;6.03;2.40;;;21.00;69.00;;;;;;4816058;29;20046;-68
2023/05/17 12:52:53;;;;;;;6.00;1.98;;;20.50;70.00;;;;;;4816970;29;20043;-68
2023/05/17 12:55:18;;;;;;;5.18;2.20;;;19.90;71.70;;;;;;4816328;29;20053;-69
2023/05/17 12:57:52;;;;;;;5.88;2.63;;;19.40;73.40;;;;;;4817595;29;20110;-69
2023/05/17 13:00:18;;;;;;;6.53;2.85;;;18.90;74.80;;;;;;4816273;29;20062;-69
2023/05/17 13:02:44;;;;;;;4.82;2.25;;;18.30;76.00;;;;;;4816238;29;20118;-69
2023/05/17 13:05:15;;;;;;;6.60;2.67;;;18.10;76.20;;;;;;4816290;29;20035;-69
2023/05/17 13:07:40;;;;;;;5.68;2.25;;;17.50;77.70;;;;;;4800381;29;20212;-69
2023/05/17 13:10:25;;;;;;;6.20;2.20;;;17.60;77.30;;;;;;4816391;29;20045;-70
2023/05/17 13:12:59;;;;;;;5.75;2.15;;;17.50;77.40;;;;;;4809856;29;20169;-69
2023/05/17 13:15:29;;;;;;;4.57;2.00;;;17.80;77.10;;;;;;4830413;29;20046;-69
2023/05/17 13:17:55;;;;;;;6.40;2.50;;;18.30;77.60;;;;;;4805621;29;20043;-69
2023/05/17 13:20:21;;;;;;;4.57;1.70;;;18.50;75.10;;;;;;4815646;29;20415;-73
2023/05/17 13:22:47;;;;;;;5.47;2.22;;;18.60;74.10;;;;;;4816783;29;20266;-69
2023/05/17 13:25:13;;;;;;;5.88;2.33;;;18.70;73.80;;;;;;4816046;29;20114;-70
2023/05/17 13:27:45;;;;;;;5.78;2.10;;;18.70;74.40;;;;;;4816277;29;20031;-71
2023/05/17 13:30:12;;;;;;;6.20;2.58;;;18.40;75.10;;;;;;4819020;29;20048;-70
2023/05/17 13:32:37;;;;;;;7.95;2.28;;;18.30;75.30;;;;;;4818478;29;20286;-70
2023/05/17 13:35:03;;;;;;;7.32;2.13;;;18.40;75.60;;;;;;4815875;29;20034;-71
2023/05/17 13:37:29;;;;;;;6.00;2.40;;;18.50;75.00;;;;;;4816024;29;20050;-72
2023/05/17 13:39:55;;;;;;;4.88;2.35;;;18.60;75.10;;;;;;4815775;29;20042;-72
2023/05/17 13:42:22;;;;;;;5.68;2.28;;;18.70;74.50;;;;;;4815961;29;20126;-69
2023/05/17 13:44:48;;;;;;;5.47;2.30;;;18.80;75.00;;;;;;4815923;29;20047;-69
2023/05/17 13:47:14;;;;;;;6.88;2.53;;;18.80;74.60;;;;;;4815531;29;20050;-69
2023/05/17 13:49:40;;;;;;;8.48;2.08;;;18.70;75.10;;;;;;4815892;29;20038;-70
2023/05/17 13:52:07;;;;;;;6.05;1.90;;;18.90;73.70;;;;;;4815150;29;20045;-70
2023/05/17 13:54:33;;;;;;;4.97;2.20;;;18.80;73.70;;;;;;4815794;29;20319;-69
2023/05/17 13:57:00;;;;;;;7.03;2.28;;;18.90;72.70;;;;;;4826882;29;20046;-70
2023/05/17 13:59:25;;;;;;;5.65;2.13;;;18.80;72.90;;;;;;4822882;29;20087;-70
2023/05/17 14:01:51;;;;;;;5.13;2.03;;;18.60;73.70;;;;;;4819331;29;20050;-70
2023/05/17 14:04:18;;;;;;;6.07;2.00;;;18.80;76.10;;;;;;4820817;29;20291;-70
2023/05/17 14:06:44;;;;;;;5.43;2.20;;;19.10;73.10;;;;;;4815730;29;20080;-70
2023/05/17 14:09:10;;;;;;;6.03;2.20;;;19.30;73.00;;;;;;4816423;29;20026;-71
2023/05/17 14:11:36;;;;;;;4.60;2.25;;;19.50;73.20;;;;;;4826376;29;20046;-70
2023/05/17 14:14:03;;;;;;;5.60;2.72;;;19.40;72.60;;;;;;4815826;29;20026;-70
2023/05/17 14:16:28;;;;;;;8.15;2.38;;;19.90;72.30;;;;;;4833901;29;20042;-70
2023/05/17 14:18:54;;;;;;;6.60;1.98;;;20.30;70.60;;;;;;4833223;29;20075;-71
2023/05/17 14:21:20;;;;;;;6.32;2.08;;;20.70;69.20;;;;;;4814442;29;20019;-70
2023/05/17 14:23:45;;;;;;;3.97;1.90;;;20.80;68.70;;;;;;4815328;29;20039;-68
2023/05/17 14:26:11;;;;;;;5.35;2.50;;;20.80;68.20;;;;;;4814705;29;20055;-69
2023/05/17 14:28:37;;;;;;;7.20;2.28;;;20.90;68.00;;;;;;4815508;29;20151;-70
2023/05/17 14:31:06;;;;;;;6.35;2.20;;;21.10;67.10;;;;;;4821264;29;20102;-69
2023/05/17 14:33:32;;;;;;;9.55;2.47;;;21.70;66.40;;;;;;4815375;29;20330;-69
2023/05/17 14:35:58;;;;;;;4.78;2.08;;;22.00;66.60;;;;;;4814977;29;20073;-69
2023/05/17 14:38:23;;;;;;;5.35;2.25;;;21.80;66.30;;;;;;4814604;29;20038;-70
2023/05/17 14:40:49;;;;;;;7.13;2.10;;;21.30;67.00;;;;;;4815361;29;20193;-69
2023/05/17 14:43:15;;;;;;;5.55;2.20;;;21.00;67.20;;;;;;4814721;29;20051;-69
2023/05/17 14:45:41;;;;;;;6.22;2.20;;;20.40;67.60;;;;;;4815179;29;20043;-72
2023/05/17 14:48:07;;;;;;;5.65;2.03;;;19.70;68.70;;;;;;4814819;29;20043;-72
2023/05/17 14:50:35;;;;;;;4.78;1.88;;;19.10;69.30;;;;;;4815004;29;20053;-70
2023/05/17 14:53:01;;;;;;;6.15;2.28;;;18.70;69.80;;;;;;4814914;29;20083;-71
2023/05/17 14:55:27;;;;;;;5.47;2.33;;;18.40;72.60;;;;;;4815184;29;20038;-71
2023/05/17 14:57:53;;;;;;;5.70;2.47;;;18.10;70.50;;;;;;4832816;29;20094;-71
2023/05/17 15:00:21;;;;;;;5.45;2.22;;;17.70;72.00;;;;;;4832419;29;20202;-71
2023/05/17 15:02:46;;;;;;;4.80;2.03;;;17.30;72.60;;;;;;4832725;29;20046;-71
2023/05/17 15:05:12;;;;;;;5.07;2.10;;;17.30;73.80;;;;;;4832689;29;20400;-72
2023/05/17 15:07:38;;;;;;;6.45;2.38;;;17.00;74.40;;;;;;4833182;29;20038;-71
2023/05/17 15:10:04;;;;;;;4.68;2.40;;;16.70;75.50;;;;;;4824686;29;20061;-70
2023/05/17 15:12:31;;;;;;;5.53;2.60;;;16.50;76.50;;;;;;4814804;29;20090;-70
2023/05/17 15:14:57;;;;;;;5.40;2.30;;;16.40;77.20;;;;;;4815138;29;20099;-71
2023/05/17 15:17:23;;;;;;;6.80;2.40;;;16.20;78.30;;;;;;4818821;29;20033;-70
2023/05/17 15:19:50;;;;;;;6.53;2.25;;;16.00;79.20;;;;;;4814986;29;20035;-70
2023/05/17 15:22:16;;;;;;;8.20;2.75;;;15.90;79.90;;;;;;4814152;29;20047;-71
2023/05/17 15:24:42;;;;;;;6.00;2.40;;;15.70;79.60;;;;;;4814922;29;20069;-71
2023/05/17 15:27:11;;;;;;;6.35;2.60;;;15.60;80.00;;;;;;4814489;29;20213;-71
2023/05/17 15:29:39;;;;;;;;;;;15.60;79.90;;;;;;4821158;29;20031;-70
2023/05/17 15:32:05;;;;;;;5.53;2.20;;;15.60;78.90;;;;;;4816247;29;19909;-71
2023/05/17 15:34:31;;;;;;;5.18;2.10;;;15.50;79.30;;;;;;4818370;29;20358;-71
2023/05/17 15:36:57;;;;;;;5.85;2.30;;;15.60;79.50;;;;;;4828208;29;20042;-71
2023/05/17 15:39:23;;;;;;;6.68;2.42;;;15.70;79.10;;;;;;4819506;29;20041;-70
2023/05/17 15:41:49;;;;;;;6.22;2.05;;;15.90;79.10;;;;;;4820192;29;20047;-70
2023/05/17 15:44:15;;;;;;;4.40;2.05;;;16.20;78.10;;;;;;4817299;29;20114;-70
2023/05/17 15:46:40;;;;;;;5.97;2.20;;;16.50;77.30;;;;;;4817783;29;20229;-70
2023/05/17 15:49:06;;;;;;;5.88;2.13;;;18.10;75.10;;;;;;4817546;29;20034;-71
2023/05/17 15:51:32;;;;;;;9.70;2.40;;;20.00;69.00;;;;;;4817733;29;20321;-70
2023/05/17 15:53:58;;;;;;;6.55;2.05;;;20.00;68.40;;;;;;4817777;29;20038;-71
2023/05/17 15:56:23;;;;;;;5.57;2.40;;;19.40;69.10;;;;;;4807593;29;20042;-69
2023/05/17 15:58:49;;;;;;;7.57;2.30;;;18.70;69.30;;;;;;4835920;29;20026;-70
2023/05/17 16:01:15;;;;;;;4.70;2.00;;;18.20;71.00;;;;;;4819154;29;20030;-70
2023/05/17 16:03:41;;;;;;;5.45;2.03;;;17.70;72.30;;;;;;4835426;29;20054;-69
2023/05/17 16:06:07;;;;;;;5.43;2.30;;;17.40;73.30;;;;;;4819374;29;20053;-69
2023/05/17 16:08:32;;;;;;;4.25;1.80;;;17.30;73.60;;;;;;4836028;29;20039;-70
2023/05/17 16:10:58;;;;;;;4.57;2.10;;;18.00;74.80;;;;;;4804524;29;20038;-69
2023/05/17 16:13:24;;;;;;;4.55;1.90;;;20.40;68.50;;;;;;4817437;29;20304;-69
2023/05/17 16:15:50;;;;;;;4.70;2.00;;;22.50;63.90;;;;;;4817636;29;20316;-68
2023/05/17 16:18:15;;;;;;;4.72;2.03;;;24.20;59.80;;;;;;4797541;29;20034;-69
2023/05/17 16:20:44;;;;;;;5.45;2.03;;;23.80;58.40;;;;;;4810769;29;20087;-69
2023/05/17 16:23:10;;;;;;;3.20;2.00;;;22.60;59.50;;;;;;4822643;29;20127;-70
2023/05/17 16:25:36;;;;;;;3.97;2.10;;;22.00;61.90;;;;;;4835166;29;20037;-69
2023/05/17 16:28:02;;;;;;;4.65;2.50;;;21.40;62.40;;;;;;4834953;29;20038;-69
2023/05/17 16:30:28;;;;;;;4.70;1.92;;;20.60;63.90;;;;;;4829561;29;20235;-69
2023/05/17 16:32:53;;;;;;;5.18;2.33;;;19.90;65.50;;;;;;4818775;29;20094;-69
2023/05/17 16:35:22;;;;;;;4.18;2.10;;;20.20;64.60;;;;;;4816927;29;20050;-70
2023/05/17 16:37:48;;;;;;;3.72;2.17;;;19.70;65.10;;;;;;4817823;29;20242;-71
2023/05/17 16:40:14;;;;;;;6.55;2.83;;;19.60;66.10;;;;;;4828021;29;20172;-73
2023/05/17 16:42:39;;;;;;;5.97;2.53;;;19.30;66.20;;;;;;4819936;29;20320;-71
2023/05/17 16:45:06;;;;;;;4.40;2.13;;;19.10;66.50;;;;;;4824604;29;20190;-73
2023/05/17 16:47:32;;;;;;;4.13;2.20;;;19.00;67.80;;;;;;4835091;29;20097;-70
2023/05/17 16:49:59;;;;;;;4.03;2.20;;;19.10;66.20;;;;;;4835110;29;20103;-71
2023/05/17 16:52:25;;;;;;;5.53;2.05;;;18.90;66.50;;;;;;4834525;29;20308;-70
2023/05/17 16:54:51;;;;;;;5.88;2.45;;;18.70;66.30;;;;;;4834983;29;20041;-69
2023/05/17 16:57:16;;;;;;;4.60;2.47;;;18.40;67.40;;;;;;4834371;29;20224;-68
2023/05/17 16:59:42;;;;;;;5.35;2.08;;;18.40;67.60;;;;;;4818901;29;20054;-71
2023/05/17 17:02:08;;;;;;;5.50;2.35;;;18.40;67.20;;;;;;4834471;29;20062;-69
2023/05/17 17:04:34;;;;;;;3.80;2.10;;;18.30;68.30;;;;;;4834601;29;20046;-70
2023/05/17 17:07:00;;;;;;;7.22;2.30;;;18.00;68.50;;;;;;4834963;29;20045;-68
2023/05/17 17:09:26;;;;;;;5.13;2.10;;;18.10;68.50;;;;;;4834221;29;20037;-69
2023/05/17 17:11:52;;;;;;;5.03;2.38;;;18.40;68.80;;;;;;4824883;29;20317;-69
2023/05/17 17:14:18;;;;;;;6.95;2.40;;;19.10;67.60;;;;;;4816081;29;20053;-68
2023/05/17 17:16:44;;;;;;;5.90;2.20;;;20.40;65.50;;;;;;4816299;29;20042;-69
2023/05/17 17:19:10;;;;;;;5.28;2.35;;;21.70;63.40;;;;;;4819800;29;20042;-69
2023/05/17 17:21:36;;;;;;;5.47;2.15;;;22.70;61.70;;;;;;4816429;29;20309;-68
2023/05/17 17:24:04;;;;;;;6.32;2.30;;;23.10;61.00;;;;;;4816530;29;20045;-70
2023/05/17 17:26:30;;;;;;;4.75;2.33;;;23.50;59.40;;;;;;4830083;29;20131;-70
2023/05/17 17:28:57;;;;;;;3.83;2.10;;;24.10;59.00;;;;;;4834899;29;20217;-69
2023/05/17 17:31:23;;;;;;;5.30;2.15;;;24.90;57.30;;;;;;4828177;29;20042;-70
2023/05/17 17:33:50;;;;;;;5.40;2.45;;;26.00;57.30;;;;;;4816340;29;20039;-69
2023/05/17 17:36:16;;;;;;;5.53;2.28;;;26.10;56.30;;;;;;4815811;29;20060;-70
2023/05/17 17:38:42;;;;;;;5.20;2.30;;;25.90;55.20;;;;;;4816316;29;20039;-70
2023/05/17 17:41:08;;;;;;;6.30;2.33;;;25.80;56.20;;;;;;4821990;29;20042;-69
2023/05/17 17:43:35;;;;;;;5.38;2.13;;;26.20;55.30;;;;;;4834300;29;20053;-69
2023/05/17 17:46:01;;;;;;;5.70;2.13;;;26.20;55.30;;;;;;4834321;29;20046;-70
2023/05/17 17:48:26;;;;;;;4.15;2.30;;;25.90;55.00;;;;;;4829540;29;20034;-69
2023/05/17 17:50:52;;;;;;;4.50;1.98;;;25.80;55.00;;;;;;4826817;29;20194;-69